sensor_id;sensor_type;location;lat;lon;timestamp;P1;durP1;ratioP1;P2;durP2;ratioP2
21593;SDS011;10959;51.328;7.322;2022-09-21T00:01:41;6.33;;;3.70;;
21593;SDS011;10959;51.328;7.322;2022-09-21T00:04:08;5.10;;;3.53;;
21593;SDS011;10959;51.328;7.322;2022-09-21T00:06:35;10.47;;;3.93;;
21593;SDS011;10959;51.328;7.322;2022-09-21T00:09:02;5.43;;;3.87;;
21593;SDS011;10959;51.328;7.322;2022-09-21T00:11:31;8.47;;;4.27;;
21593;SDS011;10959;51.328;7.322;2022-09-21T00:14:00;7.93;;;3.57;;
21593;SDS011;10959;51.328;7.322;2022-09-21T00:16:28;5.03;;;4.10;;
21593;SDS011;10959;51.328;7.322;2022-09-21T00:18:56;6.27;;;3.80;;
21593;SDS011;10959;51.328;7.322;2022-09-21T00:21:22;7.57;;;3.97;;
21593;SDS011;10959;51.328;7.322;2022-09-21T00:23:50;8.33;;;3.73;;
21593;SDS011;10959;51.328;7.322;2022-09-21T00:26:20;5.73;;;3.70;;
21593;SDS011;10959;51.328;7.322;2022-09-21T00:28:51;6.03;;;3.50;;
21593;SDS011;10959;51.328;7.322;2022-09-21T00:31:19;8.97;;;4.43;;
21593;SDS011;10959;51.328;7.322;2022-09-21T00:33:46;5.17;;;3.90;;
21593;SDS011;10959;51.328;7.322;2022-09-21T00:36:16;6.60;;;3.80;;
21593;SDS011;10959;51.328;7.322;2022-09-21T00:38:44;5.23;;;4.07;;
21593;SDS011;10959;51.328;7.322;2022-09-21T00:41:14;6.87;;;4.23;;
21593;SDS011;10959;51.328;7.322;2022-09-21T00:43:41;6.50;;;3.90;;
21593;SDS011;10959;51.328;7.322;2022-09-21T00:46:13;6.13;;;4.27;;
21593;SDS011;10959;51.328;7.322;2022-09-21T00:48:55;5.33;;;3.73;;
21593;SDS011;10959;51.328;7.322;2022-09-21T00:51:24;5.23;;;3.90;;
21593;SDS011;10959;51.328;7.322;2022-09-21T00:53:52;5.63;;;3.60;;
21593;SDS011;10959;51.328;7.322;2022-09-21T00:56:21;8.53;;;4.03;;
21593;SDS011;10959;51.328;7.322;2022-09-21T00:58:50;5.80;;;4.30;;
21593;SDS011;10959;51.328;7.322;2022-09-21T01:01:21;5.07;;;4.20;;
21593;SDS011;10959;51.328;7.322;2022-09-21T01:03:49;7.10;;;4.10;;
21593;SDS011;10959;51.328;7.322;2022-09-21T01:06:18;6.50;;;4.23;;
21593;SDS011;10959;51.328;7.322;2022-09-21T01:08:46;6.60;;;4.70;;
21593;SDS011;10959;51.328;7.322;2022-09-21T01:11:21;6.87;;;5.00;;
21593;SDS011;10959;51.328;7.322;2022-09-21T01:13:58;9.10;;;4.63;;
21593;SDS011;10959;51.328;7.322;2022-09-21T01:16:39;7.43;;;4.60;;
21593;SDS011;10959;51.328;7.322;2022-09-21T01:19:16;9.20;;;5.43;;
21593;SDS011;10959;51.328;7.322;2022-09-21T01:22:00;7.90;;;5.23;;
21593;SDS011;10959;51.328;7.322;2022-09-21T01:24:39;7.00;;;4.77;;
21593;SDS011;10959;51.328;7.322;2022-09-21T01:30:15;5.57;;;4.17;;
21593;SDS011;10959;51.328;7.322;2022-09-21T01:32:45;6.40;;;4.23;;
21593;SDS011;10959;51.328;7.322;2022-09-21T01:35:18;7.63;;;4.40;;
21593;SDS011;10959;51.328;7.322;2022-09-21T01:37:49;5.40;;;4.43;;
21593;SDS011;10959;51.328;7.322;2022-09-21T01:40:22;5.17;;;4.50;;
21593;SDS011;10959;51.328;7.322;2022-09-21T01:42:53;6.63;;;4.30;;
21593;SDS011;10959;51.328;7.322;2022-09-21T01:45:25;6.97;;;4.77;;
21593;SDS011;10959;51.328;7.322;2022-09-21T01:47:56;5.90;;;4.27;;
21593;SDS011;10959;51.328;7.322;2022-09-21T01:50:24;5.03;;;4.17;;
21593;SDS011;10959;51.328;7.322;2022-09-21T01:52:56;6.33;;;4.97;;
21593;SDS011;10959;51.328;7.322;2022-09-21T01:55:28;5.93;;;3.83;;
21593;SDS011;10959;51.328;7.322;2022-09-21T01:58:00;5.70;;;4.60;;
21593;SDS011;10959;51.328;7.322;2022-09-21T02:00:36;4.37;;;3.73;;
21593;SDS011;10959;51.328;7.322;2022-09-21T02:03:04;5.53;;;4.17;;
21593;SDS011;10959;51.328;7.322;2022-09-21T02:05:39;4.17;;;3.73;;
21593;SDS011;10959;51.328;7.322;2022-09-21T02:08:06;5.23;;;3.37;;
21593;SDS011;10959;51.328;7.322;2022-09-21T02:10:35;4.90;;;4.00;;
21593;SDS011;10959;51.328;7.322;2022-09-21T02:13:05;5.27;;;3.90;;
21593;SDS011;10959;51.328;7.322;2022-09-21T02:15:38;4.00;;;3.60;;
21593;SDS011;10959;51.328;7.322;2022-09-21T02:18:20;5.87;;;4.60;;
21593;SDS011;10959;51.328;7.322;2022-09-21T02:20:59;5.53;;;4.10;;
21593;SDS011;10959;51.328;7.322;2022-09-21T02:23:29;6.70;;;4.27;;
21593;SDS011;10959;51.328;7.322;2022-09-21T02:26:03;5.37;;;3.80;;
21593;SDS011;10959;51.328;7.322;2022-09-21T02:28:36;6.93;;;4.17;;
21593;SDS011;10959;51.328;7.322;2022-09-21T02:31:11;4.47;;;3.63;;
21593;SDS011;10959;51.328;7.322;2022-09-21T02:33:44;5.77;;;4.10;;
21593;SDS011;10959;51.328;7.322;2022-09-21T02:36:21;5.37;;;3.87;;
21593;SDS011;10959;51.328;7.322;2022-09-21T02:38:59;5.50;;;4.13;;
21593;SDS011;10959;51.328;7.322;2022-09-21T02:41:32;7.43;;;4.10;;
21593;SDS011;10959;51.328;7.322;2022-09-21T02:44:03;4.97;;;3.93;;
21593;SDS011;10959;51.328;7.322;2022-09-21T02:46:36;6.63;;;3.97;;
21593;SDS011;10959;51.328;7.322;2022-09-21T02:49:06;5.07;;;3.77;;
21593;SDS011;10959;51.328;7.322;2022-09-21T02:51:37;5.13;;;4.27;;
21593;SDS011;10959;51.328;7.322;2022-09-21T02:54:08;6.13;;;4.10;;
21593;SDS011;10959;51.328;7.322;2022-09-21T02:56:39;6.10;;;4.87;;
21593;SDS011;10959;51.328;7.322;2022-09-21T02:59:07;5.40;;;3.73;;
21593;SDS011;10959;51.328;7.322;2022-09-21T03:01:36;6.27;;;4.30;;
21593;SDS011;10959;51.328;7.322;2022-09-21T03:04:05;6.23;;;4.10;;
21593;SDS011;10959;51.328;7.322;2022-09-21T03:06:32;5.23;;;4.20;;
21593;SDS011;10959;51.328;7.322;2022-09-21T03:08:58;6.70;;;3.97;;
21593;SDS011;10959;51.328;7.322;2022-09-21T03:11:25;6.30;;;4.13;;
21593;SDS011;10959;51.328;7.322;2022-09-21T03:13:51;6.63;;;4.47;;
21593;SDS011;10959;51.328;7.322;2022-09-21T03:16:18;3.97;;;3.50;;
21593;SDS011;10959;51.328;7.322;2022-09-21T03:18:46;4.87;;;3.60;;
21593;SDS011;10959;51.328;7.322;2022-09-21T03:21:13;4.50;;;3.50;;
21593;SDS011;10959;51.328;7.322;2022-09-21T03:23:39;7.33;;;3.90;;
21593;SDS011;10959;51.328;7.322;2022-09-21T03:26:06;3.97;;;3.17;;
21593;SDS011;10959;51.328;7.322;2022-09-21T03:28:33;7.13;;;3.63;;
21593;SDS011;10959;51.328;7.322;2022-09-21T03:31:00;5.63;;;3.60;;
21593;SDS011;10959;51.328;7.322;2022-09-21T03:33:26;8.97;;;5.57;;
21593;SDS011;10959;51.328;7.322;2022-09-21T03:35:54;6.40;;;5.30;;
21593;SDS011;10959;51.328;7.322;2022-09-21T03:38:21;7.10;;;6.00;;
21593;SDS011;10959;51.328;7.322;2022-09-21T03:40:49;7.87;;;5.90;;
21593;SDS011;10959;51.328;7.322;2022-09-21T03:43:16;6.80;;;5.77;;
21593;SDS011;10959;51.328;7.322;2022-09-21T03:45:44;6.27;;;4.53;;
21593;SDS011;10959;51.328;7.322;2022-09-21T03:48:11;5.77;;;4.40;;
21593;SDS011;10959;51.328;7.322;2022-09-21T03:50:39;4.10;;;3.70;;
21593;SDS011;10959;51.328;7.322;2022-09-21T03:53:07;4.17;;;3.77;;
21593;SDS011;10959;51.328;7.322;2022-09-21T03:55:35;3.77;;;3.47;;
21593;SDS011;10959;51.328;7.322;2022-09-21T03:58:02;4.27;;;3.17;;
21593;SDS011;10959;51.328;7.322;2022-09-21T04:00:29;4.00;;;3.30;;
21593;SDS011;10959;51.328;7.322;2022-09-21T04:02:56;4.43;;;3.47;;
21593;SDS011;10959;51.328;7.322;2022-09-21T04:05:23;6.63;;;4.30;;
21593;SDS011;10959;51.328;7.322;2022-09-21T04:07:49;5.17;;;3.80;;
21593;SDS011;10959;51.328;7.322;2022-09-21T04:10:18;6.10;;;3.70;;
21593;SDS011;10959;51.328;7.322;2022-09-21T04:12:56;5.63;;;3.40;;
21593;SDS011;10959;51.328;7.322;2022-09-21T04:15:23;4.73;;;3.50;;
21593;SDS011;10959;51.328;7.322;2022-09-21T04:17:50;4.17;;;3.20;;
21593;SDS011;10959;51.328;7.322;2022-09-21T04:20:17;3.53;;;3.23;;
21593;SDS011;10959;51.328;7.322;2022-09-21T04:22:44;5.90;;;3.30;;
21593;SDS011;10959;51.328;7.322;2022-09-21T04:25:12;4.27;;;3.60;;
21593;SDS011;10959;51.328;7.322;2022-09-21T04:27:40;3.73;;;3.13;;
21593;SDS011;10959;51.328;7.322;2022-09-21T04:30:08;4.97;;;3.23;;
21593;SDS011;10959;51.328;7.322;2022-09-21T04:32:36;3.50;;;3.20;;
21593;SDS011;10959;51.328;7.322;2022-09-21T04:35:03;5.77;;;3.00;;
21593;SDS011;10959;51.328;7.322;2022-09-21T04:37:30;3.90;;;3.30;;
21593;SDS011;10959;51.328;7.322;2022-09-21T04:39:57;4.17;;;3.40;;
21593;SDS011;10959;51.328;7.322;2022-09-21T04:42:23;4.70;;;3.13;;
21593;SDS011;10959;51.328;7.322;2022-09-21T04:44:52;5.17;;;3.20;;
21593;SDS011;10959;51.328;7.322;2022-09-21T04:47:19;3.43;;;3.13;;
21593;SDS011;10959;51.328;7.322;2022-09-21T04:49:47;5.60;;;3.50;;
21593;SDS011;10959;51.328;7.322;2022-09-21T04:52:14;4.07;;;3.40;;
21593;SDS011;10959;51.328;7.322;2022-09-21T04:54:40;5.80;;;3.67;;
21593;SDS011;10959;51.328;7.322;2022-09-21T04:57:06;3.60;;;3.13;;
21593;SDS011;10959;51.328;7.322;2022-09-21T04:59:33;4.63;;;3.20;;
21593;SDS011;10959;51.328;7.322;2022-09-21T05:02:01;4.50;;;2.80;;
21593;SDS011;10959;51.328;7.322;2022-09-21T05:04:27;3.20;;;2.87;;
21593;SDS011;10959;51.328;7.322;2022-09-21T05:06:54;4.53;;;3.27;;
21593;SDS011;10959;51.328;7.322;2022-09-21T05:09:22;5.73;;;3.50;;
21593;SDS011;10959;51.328;7.322;2022-09-21T05:12:06;4.17;;;3.50;;
21593;SDS011;10959;51.328;7.322;2022-09-21T05:14:34;5.73;;;4.00;;
21593;SDS011;10959;51.328;7.322;2022-09-21T05:17:01;5.90;;;4.07;;
21593;SDS011;10959;51.328;7.322;2022-09-21T05:19:28;4.43;;;3.63;;
21593;SDS011;10959;51.328;7.322;2022-09-21T05:21:54;5.23;;;3.27;;
21593;SDS011;10959;51.328;7.322;2022-09-21T05:24:21;4.67;;;3.53;;
21593;SDS011;10959;51.328;7.322;2022-09-21T05:26:47;7.83;;;4.13;;
21593;SDS011;10959;51.328;7.322;2022-09-21T05:29:14;4.67;;;4.20;;
21593;SDS011;10959;51.328;7.322;2022-09-21T05:31:42;7.10;;;4.10;;
21593;SDS011;10959;51.328;7.322;2022-09-21T05:34:23;6.20;;;4.90;;
21593;SDS011;10959;51.328;7.322;2022-09-21T05:37:00;7.40;;;4.43;;
21593;SDS011;10959;51.328;7.322;2022-09-21T05:39:33;7.13;;;4.40;;
21593;SDS011;10959;51.328;7.322;2022-09-21T05:42:00;5.37;;;4.47;;
21593;SDS011;10959;51.328;7.322;2022-09-21T05:44:27;6.73;;;5.03;;
21593;SDS011;10959;51.328;7.322;2022-09-21T05:46:56;5.87;;;4.60;;
21593;SDS011;10959;51.328;7.322;2022-09-21T05:49:27;5.43;;;4.50;;
21593;SDS011;10959;51.328;7.322;2022-09-21T05:52:05;5.70;;;4.30;;
21593;SDS011;10959;51.328;7.322;2022-09-21T05:54:40;4.87;;;4.23;;
21593;SDS011;10959;51.328;7.322;2022-09-21T05:57:18;6.43;;;4.40;;
21593;SDS011;10959;51.328;7.322;2022-09-21T05:59:57;5.80;;;4.10;;
21593;SDS011;10959;51.328;7.322;2022-09-21T06:02:34;5.50;;;4.93;;
21593;SDS011;10959;51.328;7.322;2022-09-21T06:05:14;7.20;;;4.70;;
21593;SDS011;10959;51.328;7.322;2022-09-21T06:07:41;4.80;;;4.30;;
21593;SDS011;10959;51.328;7.322;2022-09-21T06:10:08;4.93;;;4.20;;
21593;SDS011;10959;51.328;7.322;2022-09-21T06:12:37;5.40;;;4.57;;
21593;SDS011;10959;51.328;7.322;2022-09-21T06:15:04;5.63;;;5.00;;
21593;SDS011;10959;51.328;7.322;2022-09-21T06:17:31;6.67;;;5.60;;
21593;SDS011;10959;51.328;7.322;2022-09-21T06:19:58;5.50;;;5.00;;
21593;SDS011;10959;51.328;7.322;2022-09-21T06:22:26;5.40;;;4.57;;
21593;SDS011;10959;51.328;7.322;2022-09-21T06:24:52;6.30;;;4.20;;
21593;SDS011;10959;51.328;7.322;2022-09-21T06:27:19;6.23;;;4.43;;
21593;SDS011;10959;51.328;7.322;2022-09-21T06:29:45;6.50;;;4.77;;
21593;SDS011;10959;51.328;7.322;2022-09-21T06:32:12;5.83;;;4.67;;
21593;SDS011;10959;51.328;7.322;2022-09-21T06:34:38;6.20;;;4.70;;
21593;SDS011;10959;51.328;7.322;2022-09-21T06:37:06;7.53;;;5.97;;
21593;SDS011;10959;51.328;7.322;2022-09-21T06:39:34;5.33;;;4.63;;
21593;SDS011;10959;51.328;7.322;2022-09-21T06:42:01;5.63;;;5.13;;
21593;SDS011;10959;51.328;7.322;2022-09-21T06:44:27;7.07;;;4.83;;
21593;SDS011;10959;51.328;7.322;2022-09-21T06:46:54;5.57;;;4.97;;
21593;SDS011;10959;51.328;7.322;2022-09-21T06:49:21;5.67;;;5.00;;
21593;SDS011;10959;51.328;7.322;2022-09-21T06:51:48;6.23;;;4.40;;
21593;SDS011;10959;51.328;7.322;2022-09-21T06:54:14;4.83;;;4.20;;
21593;SDS011;10959;51.328;7.322;2022-09-21T06:56:43;4.43;;;4.03;;
21593;SDS011;10959;51.328;7.322;2022-09-21T06:59:09;6.57;;;3.90;;
21593;SDS011;10959;51.328;7.322;2022-09-21T07:01:36;5.27;;;4.53;;
21593;SDS011;10959;51.328;7.322;2022-09-21T07:04:03;4.83;;;4.10;;
21593;SDS011;10959;51.328;7.322;2022-09-21T07:06:30;5.10;;;4.60;;
21593;SDS011;10959;51.328;7.322;2022-09-21T07:08:57;4.87;;;3.70;;
21593;SDS011;10959;51.328;7.322;2022-09-21T07:11:24;5.00;;;4.00;;
21593;SDS011;10959;51.328;7.322;2022-09-21T07:13:53;5.93;;;3.97;;
21593;SDS011;10959;51.328;7.322;2022-09-21T07:16:20;4.63;;;4.17;;
21593;SDS011;10959;51.328;7.322;2022-09-21T07:18:47;6.23;;;4.40;;
21593;SDS011;10959;51.328;7.322;2022-09-21T07:21:14;4.60;;;3.80;;
21593;SDS011;10959;51.328;7.322;2022-09-21T07:23:41;5.07;;;3.83;;
21593;SDS011;10959;51.328;7.322;2022-09-21T07:26:08;6.93;;;4.57;;
21593;SDS011;10959;51.328;7.322;2022-09-21T07:28:36;7.47;;;4.47;;
21593;SDS011;10959;51.328;7.322;2022-09-21T07:31:06;6.97;;;4.33;;
21593;SDS011;10959;51.328;7.322;2022-09-21T07:33:34;5.47;;;4.37;;
21593;SDS011;10959;51.328;7.322;2022-09-21T07:36:01;6.00;;;4.80;;
21593;SDS011;10959;51.328;7.322;2022-09-21T07:38:34;5.47;;;4.27;;
21593;SDS011;10959;51.328;7.322;2022-09-21T07:41:01;4.80;;;4.30;;
21593;SDS011;10959;51.328;7.322;2022-09-21T07:43:28;5.40;;;4.50;;
21593;SDS011;10959;51.328;7.322;2022-09-21T07:45:54;7.30;;;4.20;;
21593;SDS011;10959;51.328;7.322;2022-09-21T07:48:22;6.30;;;5.13;;
21593;SDS011;10959;51.328;7.322;2022-09-21T07:50:49;6.23;;;4.40;;
21593;SDS011;10959;51.328;7.322;2022-09-21T07:53:16;6.10;;;4.33;;
21593;SDS011;10959;51.328;7.322;2022-09-21T07:55:43;5.93;;;4.00;;
21593;SDS011;10959;51.328;7.322;2022-09-21T07:58:09;4.50;;;4.10;;
21593;SDS011;10959;51.328;7.322;2022-09-21T08:00:53;5.77;;;4.17;;
21593;SDS011;10959;51.328;7.322;2022-09-21T08:03:20;6.03;;;4.43;;
21593;SDS011;10959;51.328;7.322;2022-09-21T08:05:49;4.97;;;3.87;;
21593;SDS011;10959;51.328;7.322;2022-09-21T08:08:16;4.70;;;3.60;;
21593;SDS011;10959;51.328;7.322;2022-09-21T08:10:43;6.00;;;3.37;;
21593;SDS011;10959;51.328;7.322;2022-09-21T08:13:10;6.13;;;3.33;;
21593;SDS011;10959;51.328;7.322;2022-09-21T08:15:36;4.23;;;3.10;;
21593;SDS011;10959;51.328;7.322;2022-09-21T08:18:03;2.80;;;2.23;;
21593;SDS011;10959;51.328;7.322;2022-09-21T08:20:31;6.70;;;3.10;;
21593;SDS011;10959;51.328;7.322;2022-09-21T08:22:59;4.03;;;2.50;;
21593;SDS011;10959;51.328;7.322;2022-09-21T08:25:27;4.77;;;2.57;;
21593;SDS011;10959;51.328;7.322;2022-09-21T08:27:56;4.33;;;2.23;;
21593;SDS011;10959;51.328;7.322;2022-09-21T08:30:24;4.07;;;2.20;;
21593;SDS011;10959;51.328;7.322;2022-09-21T08:32:52;3.53;;;1.63;;
21593;SDS011;10959;51.328;7.322;2022-09-21T08:35:19;5.40;;;2.20;;
21593;SDS011;10959;51.328;7.322;2022-09-21T08:37:46;3.23;;;1.70;;
21593;SDS011;10959;51.328;7.322;2022-09-21T08:40:16;5.20;;;1.63;;
21593;SDS011;10959;51.328;7.322;2022-09-21T08:42:47;4.40;;;2.00;;
21593;SDS011;10959;51.328;7.322;2022-09-21T08:45:20;3.90;;;1.77;;
21593;SDS011;10959;51.328;7.322;2022-09-21T08:47:51;5.00;;;2.07;;
21593;SDS011;10959;51.328;7.322;2022-09-21T08:50:29;3.80;;;1.30;;
21593;SDS011;10959;51.328;7.322;2022-09-21T08:53:00;3.60;;;1.43;;
21593;SDS011;10959;51.328;7.322;2022-09-21T08:55:33;3.60;;;1.77;;
21593;SDS011;10959;51.328;7.322;2022-09-21T08:57:59;2.93;;;1.40;;
21593;SDS011;10959;51.328;7.322;2022-09-21T09:00:26;3.90;;;2.00;;
21593;SDS011;10959;51.328;7.322;2022-09-21T09:03:08;2.03;;;1.30;;
21593;SDS011;10959;51.328;7.322;2022-09-21T09:05:55;3.80;;;1.60;;
21593;SDS011;10959;51.328;7.322;2022-09-21T09:08:31;4.77;;;2.30;;
21593;SDS011;10959;51.328;7.322;2022-09-21T09:11:12;3.73;;;1.70;;
21593;SDS011;10959;51.328;7.322;2022-09-21T09:13:53;3.43;;;1.50;;
21593;SDS011;10959;51.328;7.322;2022-09-21T09:16:35;4.03;;;1.07;;
21593;SDS011;10959;51.328;7.322;2022-09-21T09:19:12;4.70;;;1.20;;
21593;SDS011;10959;51.328;7.322;2022-09-21T09:21:45;4.83;;;1.20;;
21593;SDS011;10959;51.328;7.322;2022-09-21T09:24:14;4.33;;;1.07;;
21593;SDS011;10959;51.328;7.322;2022-09-21T09:26:46;2.40;;;1.10;;
21593;SDS011;10959;51.328;7.322;2022-09-21T09:29:17;2.77;;;1.13;;
21593;SDS011;10959;51.328;7.322;2022-09-21T09:31:50;4.37;;;1.40;;
21593;SDS011;10959;51.328;7.322;2022-09-21T09:34:20;3.73;;;1.63;;
21593;SDS011;10959;51.328;7.322;2022-09-21T09:36:56;2.93;;;1.00;;
21593;SDS011;10959;51.328;7.322;2022-09-21T09:39:24;4.97;;;1.40;;
21593;SDS011;10959;51.328;7.322;2022-09-21T09:42:17;3.97;;;1.17;;
21593;SDS011;10959;51.328;7.322;2022-09-21T09:48:06;3.13;;;1.37;;
21593;SDS011;10959;51.328;7.322;2022-09-21T09:50:51;2.93;;;1.63;;
21593;SDS011;10959;51.328;7.322;2022-09-21T09:53:19;3.27;;;2.00;;
21593;SDS011;10959;51.328;7.322;2022-09-21T09:55:48;6.60;;;1.40;;
21593;SDS011;10959;51.328;7.322;2022-09-21T09:58:19;4.00;;;1.40;;
21593;SDS011;10959;51.328;7.322;2022-09-21T10:00:48;2.93;;;1.27;;
21593;SDS011;10959;51.328;7.322;2022-09-21T10:03:18;4.97;;;1.33;;
21593;SDS011;10959;51.328;7.322;2022-09-21T10:05:45;3.43;;;1.20;;
21593;SDS011;10959;51.328;7.322;2022-09-21T10:08:26;6.03;;;1.20;;
21593;SDS011;10959;51.328;7.322;2022-09-21T10:10:54;3.90;;;1.80;;
21593;SDS011;10959;51.328;7.322;2022-09-21T10:13:24;5.37;;;1.60;;
21593;SDS011;10959;51.328;7.322;2022-09-21T10:15:54;12.00;;;1.97;;
21593;SDS011;10959;51.328;7.322;2022-09-21T10:18:24;3.83;;;1.23;;
21593;SDS011;10959;51.328;7.322;2022-09-21T10:20:54;3.97;;;1.27;;
21593;SDS011;10959;51.328;7.322;2022-09-21T10:23:23;3.27;;;1.60;;
21593;SDS011;10959;51.328;7.322;2022-09-21T10:25:54;4.87;;;1.50;;
21593;SDS011;10959;51.328;7.322;2022-09-21T10:28:24;4.93;;;1.37;;
21593;SDS011;10959;51.328;7.322;2022-09-21T10:31:06;4.10;;;1.00;;
21593;SDS011;10959;51.328;7.322;2022-09-21T10:33:38;2.63;;;1.00;;
21593;SDS011;10959;51.328;7.322;2022-09-21T10:36:20;4.13;;;1.50;;
21593;SDS011;10959;51.328;7.322;2022-09-21T10:38:51;3.03;;;1.13;;
21593;SDS011;10959;51.328;7.322;2022-09-21T10:41:18;4.13;;;1.43;;
21593;SDS011;10959;51.328;7.322;2022-09-21T10:43:46;4.43;;;1.23;;
21593;SDS011;10959;51.328;7.322;2022-09-21T10:46:15;1.87;;;0.63;;
21593;SDS011;10959;51.328;7.322;2022-09-21T10:48:43;4.70;;;0.90;;
21593;SDS011;10959;51.328;7.322;2022-09-21T10:51:18;2.63;;;0.87;;
21593;SDS011;10959;51.328;7.322;2022-09-21T10:53:51;3.07;;;0.97;;
21593;SDS011;10959;51.328;7.322;2022-09-21T10:56:18;2.37;;;0.70;;
21593;SDS011;10959;51.328;7.322;2022-09-21T11:01:46;3.60;;;1.00;;
21593;SDS011;10959;51.328;7.322;2022-09-21T11:04:15;3.73;;;1.10;;
21593;SDS011;10959;51.328;7.322;2022-09-21T11:06:49;2.73;;;1.03;;
21593;SDS011;10959;51.328;7.322;2022-09-21T11:09:21;3.97;;;1.33;;
21593;SDS011;10959;51.328;7.322;2022-09-21T11:11:52;2.60;;;1.40;;
21593;SDS011;10959;51.328;7.322;2022-09-21T11:14:32;2.87;;;1.10;;
21593;SDS011;10959;51.328;7.322;2022-09-21T11:17:08;5.10;;;1.10;;
21593;SDS011;10959;51.328;7.322;2022-09-21T11:19:39;2.87;;;0.90;;
21593;SDS011;10959;51.328;7.322;2022-09-21T11:22:11;1.50;;;0.90;;
21593;SDS011;10959;51.328;7.322;2022-09-21T11:24:46;4.50;;;1.10;;
21593;SDS011;10959;51.328;7.322;2022-09-21T11:27:18;2.53;;;0.90;;
21593;SDS011;10959;51.328;7.322;2022-09-21T11:29:54;2.77;;;0.90;;
21593;SDS011;10959;51.328;7.322;2022-09-21T11:32:40;3.43;;;1.00;;
21593;SDS011;10959;51.328;7.322;2022-09-21T11:35:23;1.73;;;0.67;;
21593;SDS011;10959;51.328;7.322;2022-09-21T11:38:10;3.50;;;0.90;;
21593;SDS011;10959;51.328;7.322;2022-09-21T11:40:46;2.37;;;1.20;;
21593;SDS011;10959;51.328;7.322;2022-09-21T11:43:32;3.63;;;1.10;;
21593;SDS011;10959;51.328;7.322;2022-09-21T11:46:20;3.83;;;0.90;;
21593;SDS011;10959;51.328;7.322;2022-09-21T11:48:54;3.57;;;1.10;;
21593;SDS011;10959;51.328;7.322;2022-09-21T11:51:36;4.63;;;0.97;;
21593;SDS011;10959;51.328;7.322;2022-09-21T11:54:31;2.63;;;0.83;;
21593;SDS011;10959;51.328;7.322;2022-09-21T11:57:19;3.87;;;0.93;;
21593;SDS011;10959;51.328;7.322;2022-09-21T11:59:56;3.07;;;0.80;;
21593;SDS011;10959;51.328;7.322;2022-09-21T12:02:39;2.87;;;0.90;;
21593;SDS011;10959;51.328;7.322;2022-09-21T12:05:21;2.67;;;0.77;;
21593;SDS011;10959;51.328;7.322;2022-09-21T12:07:58;1.70;;;0.73;;
21593;SDS011;10959;51.328;7.322;2022-09-21T12:10:42;2.27;;;0.83;;
21593;SDS011;10959;51.328;7.322;2022-09-21T12:13:18;1.27;;;0.70;;
21593;SDS011;10959;51.328;7.322;2022-09-21T12:15:54;4.33;;;1.07;;
21593;SDS011;10959;51.328;7.322;2022-09-21T12:18:29;2.60;;;0.90;;
21593;SDS011;10959;51.328;7.322;2022-09-21T12:21:04;1.83;;;0.70;;
21593;SDS011;10959;51.328;7.322;2022-09-21T12:23:39;1.60;;;0.83;;
21593;SDS011;10959;51.328;7.322;2022-09-21T12:26:08;1.93;;;0.80;;
21593;SDS011;10959;51.328;7.322;2022-09-21T12:28:40;2.97;;;1.10;;
21593;SDS011;10959;51.328;7.322;2022-09-21T12:31:11;2.20;;;0.83;;
21593;SDS011;10959;51.328;7.322;2022-09-21T12:33:46;2.10;;;0.60;;
21593;SDS011;10959;51.328;7.322;2022-09-21T12:36:17;3.93;;;0.70;;
21593;SDS011;10959;51.328;7.322;2022-09-21T12:38:49;2.53;;;0.80;;
21593;SDS011;10959;51.328;7.322;2022-09-21T12:41:22;2.30;;;0.63;;
21593;SDS011;10959;51.328;7.322;2022-09-21T12:43:56;2.03;;;0.77;;
21593;SDS011;10959;51.328;7.322;2022-09-21T12:46:32;2.40;;;0.80;;
21593;SDS011;10959;51.328;7.322;2022-09-21T12:49:09;1.30;;;0.83;;
21593;SDS011;10959;51.328;7.322;2022-09-21T12:51:40;2.80;;;0.87;;
21593;SDS011;10959;51.328;7.322;2022-09-21T12:54:12;3.37;;;0.90;;
21593;SDS011;10959;51.328;7.322;2022-09-21T12:56:47;2.23;;;0.90;;
21593;SDS011;10959;51.328;7.322;2022-09-21T12:59:22;1.67;;;0.90;;
21593;SDS011;10959;51.328;7.322;2022-09-21T13:01:57;2.30;;;0.80;;
21593;SDS011;10959;51.328;7.322;2022-09-21T13:04:42;1.90;;;0.60;;
21593;SDS011;10959;51.328;7.322;2022-09-21T13:07:38;1.50;;;0.53;;
21593;SDS011;10959;51.328;7.322;2022-09-21T13:10:18;1.97;;;0.63;;
21593;SDS011;10959;51.328;7.322;2022-09-21T13:12:46;4.27;;;0.73;;
21593;SDS011;10959;51.328;7.322;2022-09-21T13:15:20;2.37;;;0.63;;
21593;SDS011;10959;51.328;7.322;2022-09-21T13:17:58;1.27;;;0.40;;
21593;SDS011;10959;51.328;7.322;2022-09-21T13:20:31;1.00;;;0.50;;
21593;SDS011;10959;51.328;7.322;2022-09-21T13:23:00;1.60;;;0.40;;
21593;SDS011;10959;51.328;7.322;2022-09-21T13:25:28;1.30;;;0.57;;
21593;SDS011;10959;51.328;7.322;2022-09-21T13:28:00;1.90;;;0.60;;
21593;SDS011;10959;51.328;7.322;2022-09-21T13:30:33;1.10;;;0.60;;
21593;SDS011;10959;51.328;7.322;2022-09-21T13:33:02;1.20;;;0.53;;
21593;SDS011;10959;51.328;7.322;2022-09-21T13:35:52;1.77;;;0.57;;
21593;SDS011;10959;51.328;7.322;2022-09-21T13:38:29;1.33;;;0.50;;
21593;SDS011;10959;51.328;7.322;2022-09-21T13:40:59;1.80;;;0.57;;
21593;SDS011;10959;51.328;7.322;2022-09-21T13:46:46;2.87;;;0.70;;
21593;SDS011;10959;51.328;7.322;2022-09-21T13:49:20;2.33;;;0.50;;
21593;SDS011;10959;51.328;7.322;2022-09-21T13:52:00;2.20;;;0.63;;
21593;SDS011;10959;51.328;7.322;2022-09-21T13:54:30;1.27;;;0.30;;
21593;SDS011;10959;51.328;7.322;2022-09-21T13:57:01;2.27;;;0.80;;
21593;SDS011;10959;51.328;7.322;2022-09-21T13:59:31;2.73;;;0.73;;
21593;SDS011;10959;51.328;7.322;2022-09-21T14:02:00;1.13;;;0.63;;
21593;SDS011;10959;51.328;7.322;2022-09-21T14:04:30;1.87;;;0.70;;
21593;SDS011;10959;51.328;7.322;2022-09-21T14:07:02;1.30;;;0.50;;
21593;SDS011;10959;51.328;7.322;2022-09-21T14:09:33;1.77;;;0.40;;
21593;SDS011;10959;51.328;7.322;2022-09-21T14:12:07;1.27;;;0.47;;
21593;SDS011;10959;51.328;7.322;2022-09-21T14:14:43;3.23;;;0.80;;
21593;SDS011;10959;51.328;7.322;2022-09-21T14:17:36;2.97;;;0.73;;
21593;SDS011;10959;51.328;7.322;2022-09-21T14:20:04;3.03;;;0.67;;
21593;SDS011;10959;51.328;7.322;2022-09-21T14:22:52;5.90;;;0.77;;
21593;SDS011;10959;51.328;7.322;2022-09-21T14:25:46;1.63;;;0.70;;
21593;SDS011;10959;51.328;7.322;2022-09-21T14:28:15;2.37;;;0.50;;
21593;SDS011;10959;51.328;7.322;2022-09-21T14:30:52;1.60;;;0.60;;
21593;SDS011;10959;51.328;7.322;2022-09-21T14:33:23;2.43;;;0.77;;
21593;SDS011;10959;51.328;7.322;2022-09-21T14:35:56;2.27;;;0.60;;
21593;SDS011;10959;51.328;7.322;2022-09-21T14:38:30;1.17;;;0.50;;
21593;SDS011;10959;51.328;7.322;2022-09-21T14:41:06;1.03;;;0.40;;
21593;SDS011;10959;51.328;7.322;2022-09-21T14:43:33;1.60;;;0.43;;
21593;SDS011;10959;51.328;7.322;2022-09-21T14:46:16;2.93;;;0.80;;
21593;SDS011;10959;51.328;7.322;2022-09-21T14:48:58;3.33;;;0.73;;
21593;SDS011;10959;51.328;7.322;2022-09-21T14:51:35;2.47;;;0.50;;
21593;SDS011;10959;51.328;7.322;2022-09-21T14:54:15;1.47;;;0.60;;
21593;SDS011;10959;51.328;7.322;2022-09-21T14:56:58;2.83;;;0.50;;
21593;SDS011;10959;51.328;7.322;2022-09-21T14:59:45;1.00;;;0.50;;
21593;SDS011;10959;51.328;7.322;2022-09-21T15:02:23;2.43;;;0.60;;
21593;SDS011;10959;51.328;7.322;2022-09-21T15:07:52;4.93;;;1.43;;
21593;SDS011;10959;51.328;7.322;2022-09-21T15:10:47;1.37;;;0.53;;
21593;SDS011;10959;51.328;7.322;2022-09-21T15:13:29;3.53;;;0.70;;
21593;SDS011;10959;51.328;7.322;2022-09-21T15:16:12;2.63;;;0.77;;
21593;SDS011;10959;51.328;7.322;2022-09-21T15:18:46;2.53;;;1.00;;
21593;SDS011;10959;51.328;7.322;2022-09-21T15:21:19;3.43;;;0.73;;
21593;SDS011;10959;51.328;7.322;2022-09-21T15:23:48;3.40;;;0.60;;
21593;SDS011;10959;51.328;7.322;2022-09-21T15:26:19;2.47;;;0.73;;
21593;SDS011;10959;51.328;7.322;2022-09-21T15:28:48;1.77;;;0.70;;
21593;SDS011;10959;51.328;7.322;2022-09-21T15:31:19;1.40;;;0.70;;